Terminal Aerodrome Forecast
Issued by NWS

Home | Current Version | Previous Version | Text Only | Print | Product List | Glossary On
Versions: 1 2 3 4 5 6 7 8 9 10 11 12 13 14 15 16 17 18 19 20 21
000
FTUS42 KMLB 032340
TAFSUA
TAF
KSUA 032340Z 0400/0424 12006KT P6SM VCTS SCT040CB BKN080
      TEMPO 0400/0401 28015G30KT 1SM +TSRA BKN020CB
     FM040200 25005KT P6SM SCT080 BKN250
     FM041000 23004KT P6SM SCT030 BKN080
     FM041600 25010KT P6SM VCTS SCT020CB BKN040
      TEMPO 0416/0420 3SM TSRA BKN025CB=

USA.gov is the U.S. government's official web portal to all federal, state and local government web resources and services.